^^
Station Historical Data
Daily Summary for September 14, 2018 Units:  Metric    English   Both
« Previous Day
Next Day »
Daily Weekly Monthly Yearly Custom
  High: Low: Average:
Temperature: -17.8 °C 8.4 °C 17.9 °C
Dew Point: -17.8 °C -9.4 °C -5.3 °C
Humidity: Humidity % 10 % 22 %
Wind Speed: 0 km/h 0 km/h 16.1 km/h
Wind Gust: 0 km/h - -
Wind:- - SE
Pressure: 0 hPa 0 hPa -
Precipitation: 0 mm    
Historical Graphs
 
 
Tabular Data for September 14, 2018
Time Temperature Dew Point Pressure Wind Wind Speed Wind Gust Humidity Rainfall Rate (Hourly)
-17.8 °C -17.8 °C 0 hPa Calm     Humidity % 0 mm
00:04 14.6 °C -6.3 °C 1009 hPa SW 9.7 km/h 22.5 km/h 23 % 0 mm
00:09 15.2 °C -7 °C 1009 hPa WSW 17.7 km/h 22.5 km/h 21 % 0 mm
00:14 16.1 °C -6.9 °C 1009 hPa SSW 17.7 km/h 30.6 km/h 20 % 0 mm
00:19 17.7 °C -6.9 °C 1009 hPa WSW 17.7 km/h 40.2 km/h 18 % 0 mm
00:24 17.3 °C -6.6 °C 1009 hPa SW 14.3 km/h 25.7 km/h 19 % 0 mm
00:29 15.2 °C -7 °C 1009 hPa SW 25.9 km/h 30.6 km/h 21 % 0 mm
00:34 14.9 °C -6.6 °C 1009 hPa SSW 11.1 km/h 27.4 km/h 22 % 0 mm
00:39 14.3 °C -6 °C 1009.4 hPa SW 20.9 km/h 25.7 km/h 24 % 0 mm
00:44 15.2 °C -6.4 °C 1009 hPa SW 25.9 km/h 30.6 km/h 22 % 0 mm
00:49 16.5 °C -7.2 °C 1009 hPa SSE 11.1 km/h 30.6 km/h 19 % 0 mm
00:54 15.6 °C -6.7 °C 1009.4 hPa WSW 14.3 km/h 24.1 km/h 21 % 0 mm
00:59 14.6 °C -6.3 °C 1009.4 hPa SW 19.5 km/h 29 km/h 23 % 0 mm
01:04 14.4 °C -7.1 °C 1009.4 hPa SSW 13 km/h 19.3 km/h 22 % 0 mm
01:09 15.3 °C -7.5 °C 1009.4 hPa South 7.9 km/h 20.9 km/h 20 % 0 mm
01:14 16.5 °C -7.2 °C 1009.7 hPa SSE 16.3 km/h 22.5 km/h 19 % 0 mm
01:19 15.3 °C -6.9 °C 1009.7 hPa SE 22.7 km/h 27.4 km/h 21 % 0 mm
01:24 15.2 °C -7 °C 1009.7 hPa SW 22.7 km/h 22.5 km/h 21 % 0 mm
01:29 16.1 °C -6.9 °C 1009.7 hPa South 16.3 km/h 25.7 km/h 20 % 0 mm
01:34 15.6 °C -6.7 °C 1009.7 hPa SE 14.3 km/h 20.9 km/h 21 % 0 mm
01:39 14.2 °C -6.7 °C 1010 hPa WSW 16.3 km/h 20.9 km/h 23 % 0 mm
01:44 13.9 °C -6.9 °C 1010 hPa South 16.3 km/h 19.3 km/h 23 % 0 mm
01:49 13.4 °C -6.8 °C 1010 hPa SSE 16.3 km/h 22.5 km/h 24 % 0 mm
01:54 13.4 °C -6.8 °C 1010 hPa SSE 24.1 km/h 24.1 km/h 24 % 0 mm
01:59 13.3 °C -6.9 °C 1010 hPa SSE 14.3 km/h 24.1 km/h 24 % 0 mm
02:04 13.3 °C -6.9 °C 1010 hPa SSW 20.9 km/h 27.4 km/h 24 % 0 mm
02:09 13.2 °C -6.9 °C 1010 hPa SSE 16.3 km/h 22.5 km/h 24 % 0 mm
02:14 12.9 °C -7.2 °C 1010.4 hPa SSW 17.7 km/h 25.7 km/h 24 % 0 mm
02:19 12.9 °C -6.7 °C 1010.4 hPa SSW 14.3 km/h 24.1 km/h 25 % 0 mm
02:24 12.7 °C -6.8 °C 1010.4 hPa South 13 km/h 20.9 km/h 25 % 0 mm
02:29 12.6 °C -6.9 °C 1010.7 hPa SE 7.9 km/h 22.5 km/h 25 % 0 mm
02:34 12.5 °C -7 °C 1010.7 hPa SSE 11.1 km/h 11.3 km/h 25 % 0 mm
02:39 11.9 °C -7 °C 1010.7 hPa South 7.9 km/h 16.1 km/h 26 % 0 mm
02:44 11.8 °C -7.1 °C 1010.7 hPa South 7.9 km/h 14.5 km/h 26 % 0 mm
02:49 11.6 °C -6.8 °C 1010.7 hPa South 11.1 km/h 12.9 km/h 27 % 0 mm
02:54 11.4 °C -7 °C 1010.7 hPa SSE 16.3 km/h 19.3 km/h 27 % 0 mm
02:59 11.4 °C -7 °C 1010.4 hPa South 20.9 km/h 27.4 km/h 27 % 0 mm
03:04 11.7 °C -6.7 °C 1010.7 hPa South 3.2 km/h 12.9 km/h 27 % 0 mm
03:09 10.7 °C -6.6 °C 1010.7 hPa SSW 16.3 km/h 24.1 km/h 29 % 0 mm
03:14 10.8 °C -7 °C 1010.4 hPa South 22.7 km/h 24.1 km/h 28 % 0 mm
03:19 10.5 °C -6.8 °C 1010.7 hPa SW 20.9 km/h 27.4 km/h 29 % 0 mm
03:24 10.7 °C -7.1 °C 1010.7 hPa South 17.7 km/h 19.3 km/h 28 % 0 mm
03:29 10.4 °C -6.9 °C 1010.7 hPa South 16.3 km/h 22.5 km/h 29 % 0 mm
03:34 10.4 °C -6.9 °C 1010.7 hPa SSW 16.3 km/h 22.5 km/h 29 % 0 mm
03:39 10.3 °C -7 °C 1010.7 hPa SSW 13 km/h 17.7 km/h 29 % 0 mm
03:44 10.1 °C -6.7 °C 1010.7 hPa South 22.7 km/h 22.5 km/h 30 % 0 mm
03:49 10 °C -7.2 °C 1010.7 hPa SE 19.5 km/h 24.1 km/h 29 % 0 mm
03:54 9.9 °C -7.3 °C 1010.7 hPa SW 17.7 km/h 24.1 km/h 29 % 0 mm
03:59 10.1 °C -7.1 °C 1010.7 hPa South 17.7 km/h 20.9 km/h 29 % 0 mm
04:04 10.1 °C -7.1 °C 1010.7 hPa SW 22.7 km/h 22.5 km/h 29 % 0 mm
04:09 10 °C -7.2 °C 1010.7 hPa SSW 16.3 km/h 20.9 km/h 29 % 0 mm
04:14 9.7 °C -7.5 °C 1010.7 hPa SSW 13 km/h 19.3 km/h 29 % 0 mm
04:19 10.1 °C -7.6 °C 1011.1 hPa South 3.2 km/h 12.9 km/h 28 % 0 mm
04:24 9.9 °C -7.8 °C 1011.1 hPa SW 13 km/h 16.1 km/h 28 % 0 mm
04:29 10.1 °C -7.6 °C 1011.1 hPa SSW 13 km/h 16.1 km/h 28 % 0 mm
04:34 9.7 °C -7.5 °C 1010.7 hPa SSW 9.7 km/h 16.1 km/h 29 % 0 mm
04:39 9.3 °C -7 °C 1011.1 hPa WSW 11.1 km/h 14.5 km/h 31 % 0 mm
04:44 8.9 °C -7.3 °C 1011.1 hPa WSW 17.7 km/h 19.3 km/h 31 % 0 mm
04:49 9 °C -7.7 °C 1011.1 hPa SW 11.1 km/h 14.5 km/h 30 % 0 mm
04:54 9.1 °C -7.6 °C 1011.1 hPa SW 17.7 km/h 19.3 km/h 30 % 0 mm
04:59 9.1 °C -7.6 °C 1011.1 hPa SW 6.4 km/h 12.9 km/h 30 % 0 mm
05:04 9.1 °C -7.6 °C 1011.1 hPa SSW 7.9 km/h 16.1 km/h 30 % 0 mm
05:09 9.1 °C -7.6 °C 1011.1 hPa SSW 14.3 km/h 22.5 km/h 30 % 0 mm
05:14 8.8 °C -7.8 °C 1011.1 hPa SSE 19.5 km/h 19.3 km/h 30 % 0 mm
05:19 8.7 °C -7.5 °C 1011.4 hPa SSW 16.3 km/h 22.5 km/h 31 % 0 mm
05:24 8.8 °C -7.8 °C 1011.4 hPa SSW 13 km/h 20.9 km/h 30 % 0 mm
05:29 9.3 °C -7.8 °C 1011.4 hPa SSE 9.7 km/h 16.1 km/h 29 % 0 mm
05:34 9.3 °C -7.8 °C 1011.4 hPa SE 16.3 km/h 24.1 km/h 29 % 0 mm
05:39 9.2 °C -7.9 °C 1011.7 hPa South 6.4 km/h 14.5 km/h 29 % 0 mm
05:44 8.9 °C -7.7 °C 1011.7 hPa SSW 13 km/h 17.7 km/h 30 % 0 mm
05:49 8.8 °C -7.8 °C 1011.7 hPa SSW 17.7 km/h 22.5 km/h 30 % 0 mm
05:54 8.4 °C -7.8 °C 1011.7 hPa SSW 22.7 km/h 22.5 km/h 31 % 0 mm
05:59 8.7 °C -7.9 °C 1011.7 hPa South 16.3 km/h 25.7 km/h 30 % 0 mm
06:04 9.1 °C -8 °C 1011.7 hPa SSW 17.7 km/h 24.1 km/h 29 % 0 mm
06:09 9 °C -8.1 °C 1011.7 hPa West 17.7 km/h 24.1 km/h 29 % 0 mm
06:14 8.7 °C -7.9 °C 1012.1 hPa SSW 11.1 km/h 27.4 km/h 30 % 0 mm
06:19 8.9 °C -8.2 °C 1012.1 hPa SW 17.7 km/h 20.9 km/h 29 % 0 mm
06:24 9.2 °C -8.4 °C 1012.1 hPa SSW 17.7 km/h 27.4 km/h 28 % 0 mm
06:29 9.4 °C -8.2 °C 1012.1 hPa SW 16.3 km/h 17.7 km/h 28 % 0 mm
06:34 9.4 °C -8.2 °C 1012.4 hPa SSE 7.9 km/h 19.3 km/h 28 % 0 mm
06:39 9.4 °C -8.7 °C 1012.4 hPa SSE 13 km/h 22.5 km/h 27 % 0 mm
06:44 9.1 °C -8.5 °C 1012.4 hPa SSW 16.3 km/h 22.5 km/h 28 % 0 mm
06:49 9 °C -8.6 °C 1012.4 hPa South 14.3 km/h 17.7 km/h 28 % 0 mm
06:54 9.2 °C -8.4 °C 1012.4 hPa SW 19.5 km/h 19.3 km/h 28 % 0 mm
06:59 9.4 °C -8.2 °C 1012.8 hPa SSE 14.3 km/h 22.5 km/h 28 % 0 mm
07:04 9.5 °C -8.1 °C 1012.8 hPa South 16.3 km/h 25.7 km/h 28 % 0 mm
07:09 9.6 °C -8 °C 1012.8 hPa SSW 14.3 km/h 22.5 km/h 28 % 0 mm
07:14 9.8 °C -8.3 °C 1012.8 hPa ESE 17.7 km/h 22.5 km/h 27 % 0 mm
07:19 9.7 °C -7.9 °C 1012.8 hPa SW 16.3 km/h 20.9 km/h 28 % 0 mm
07:24 9.6 °C -8 °C 1012.8 hPa SW 17.7 km/h 22.5 km/h 28 % 0 mm
07:29 9.6 °C -8 °C 1012.8 hPa SE 13 km/h 22.5 km/h 28 % 0 mm
07:34 9.6 °C -8 °C 1012.8 hPa SSW 14.3 km/h 19.3 km/h 28 % 0 mm
07:39 9.8 °C -7.9 °C 1012.8 hPa South 14.3 km/h 19.3 km/h 28 % 0 mm
07:44 10.6 °C -7.6 °C 1012.8 hPa South 17.7 km/h 17.7 km/h 27 % 0 mm
07:49 11.6 °C -7.8 °C 1012.8 hPa SSW 17.7 km/h 20.9 km/h 25 % 0 mm
07:54 11.9 °C -7.5 °C 1012.8 hPa South 7.9 km/h 16.1 km/h 25 % 0 mm
07:59 11.7 °C -7.7 °C 1012.8 hPa SSW 11.1 km/h 17.7 km/h 25 % 0 mm
08:04 11.8 °C -7.6 °C 1013.1 hPa SW 14.3 km/h 19.3 km/h 25 % 0 mm
08:09 11.7 °C -7.2 °C 1012.8 hPa South 17.7 km/h 17.7 km/h 26 % 0 mm
08:14 11.8 °C -6.1 °C 1013.1 hPa SW 9.7 km/h 14.5 km/h 28 % 0 mm
08:19 12.7 °C -6.3 °C 1013.1 hPa SW 3.2 km/h 8 km/h 26 % 0 mm
08:24 13.8 °C -5.9 °C 1013.1 hPa SSW 4.7 km/h 6.4 km/h 25 % 0 mm
08:29 14.6 °C -5.8 °C 1013.1 hPa SSW 6.4 km/h 8 km/h 24 % 0 mm
08:34 15.2 °C -5.2 °C 1013.1 hPa SW 6.4 km/h 8 km/h 24 % 0 mm
08:39 15.5 °C -5 °C 1013.1 hPa South 4.7 km/h 11.3 km/h 24 % 0 mm
08:44 16.1 °C -4.5 °C 1013.1 hPa SSW 1.4 km/h 4.8 km/h 24 % 0 mm
08:49 16.8 °C -3.9 °C 1013.1 hPa SW 4.7 km/h 4.8 km/h 24 % 0 mm
08:54 17.4 °C -4 °C 1013.1 hPa Calm   1.6 km/h 23 % 0 mm
08:59 18.1 °C -2.2 °C 1012.8 hPa SE 1.4 km/h 4.8 km/h 25 % 0 mm
09:04 18.3 °C -3.2 °C 1012.8 hPa Calm   1.6 km/h 23 % 0 mm
09:09 18.8 °C -2.8 °C 1012.8 hPa Calm   3.2 km/h 23 % 0 mm
09:14 19.4 °C -4.1 °C 1012.8 hPa Calm   3.2 km/h 20 % 0 mm
09:19 20 °C -3.7 °C 1012.8 hPa Calm   1.6 km/h 20 % 0 mm
09:24 20.7 °C -3.1 °C 1012.8 hPa East 1.4 km/h 3.2 km/h 20 % 0 mm
09:29 21.3 °C -0.7 °C 1012.8 hPa East 1.4 km/h 3.2 km/h 23 % 0 mm
09:34 21.4 °C -5.5 °C 1012.8 hPa SW 1.4 km/h 3.2 km/h 16 % 0 mm
09:39 21.8 °C -5.1 °C 1012.8 hPa Calm   1.6 km/h 16 % 0 mm
09:44 22.7 °C -1.4 °C 1012.8 hPa ENE 7.9 km/h 8 km/h 20 % 0 mm
09:49 22.6 °C -0.8 °C 1012.8 hPa ENE 1.4 km/h 4.8 km/h 21 % 0 mm
09:54 23.1 °C -1.1 °C 1012.8 hPa NE 1.4 km/h 4.8 km/h 20 % 0 mm
09:59 23.2 °C -2.4 °C 1012.8 hPa ENE 1.4 km/h 6.4 km/h 18 % 0 mm
10:04 23.7 °C -2 °C 1012.4 hPa East 3.2 km/h 4.8 km/h 18 % 0 mm
10:09 24 °C -2.6 °C 1012.8 hPa NE 3.2 km/h 6.4 km/h 17 % 0 mm
10:14 24.1 °C -4.2 °C 1012.8 hPa NE 3.2 km/h 4.8 km/h 15 % 0 mm
10:19 24 °C -6.1 °C 1012.4 hPa NE 1.4 km/h 6.4 km/h 13 % 0 mm
10:24 23.9 °C -5.2 °C 1012.4 hPa ENE 7.9 km/h 8 km/h 14 % 0 mm
10:29 24.1 °C -4.2 °C 1012.4 hPa ENE 3.2 km/h 6.4 km/h 15 % 0 mm
10:34 24.1 °C -3.3 °C 1012.4 hPa ENE 7.9 km/h 9.7 km/h 16 % 0 mm
10:39 24.3 °C -5.9 °C 1012.4 hPa ENE 13 km/h 25.7 km/h 13 % 0 mm
10:44 24.1 °C -6 °C 1012.4 hPa East 17.7 km/h 27.4 km/h 13 % 0 mm
10:49 24.2 °C -5 °C 1012.4 hPa ENE 20.9 km/h 32.2 km/h 14 % 0 mm
10:54 24 °C -7.2 °C 1012.4 hPa ENE 17.7 km/h 25.7 km/h 12 % 0 mm
10:59 24.2 °C -7 °C 1012.4 hPa ENE 14.3 km/h 20.9 km/h 12 % 0 mm
11:04 24.1 °C -6 °C 1012.4 hPa ENE 22.7 km/h 27.4 km/h 13 % 0 mm
11:09 24.2 °C -9.4 °C 1012.4 hPa ENE 20.9 km/h 29 km/h 10 % 0 mm
11:14 24.1 °C -7.1 °C 1012.4 hPa NE 14.3 km/h 29 km/h 12 % 0 mm
11:19 24.5 °C -7.9 °C 1012.4 hPa East 16.3 km/h 22.5 km/h 11 % 0 mm
11:24 24.7 °C -6.6 °C 1012.4 hPa ENE 11.1 km/h 25.7 km/h 12 % 0 mm
11:29 24.6 °C -7.8 °C 1012.1 hPa ENE 13 km/h 30.6 km/h 11 % 0 mm
11:34 24.8 °C -7.7 °C 1012.1 hPa ENE 24.1 km/h 29 km/h 11 % 0 mm
11:39 24.6 °C -7.8 °C 1012.1 hPa NE 17.7 km/h 30.6 km/h 11 % 0 mm
11:44 24.6 °C -6.7 °C 1012.1 hPa East 25.9 km/h 30.6 km/h 12 % 0 mm
11:49 24.9 °C -6.5 °C 1012.1 hPa ENE 20.9 km/h 35.4 km/h 12 % 0 mm
11:54 24.4 °C -9.2 °C 1012.1 hPa ENE 25.9 km/h 32.2 km/h 10 % 0 mm
11:59 24.6 °C -6.7 °C 1012.1 hPa ENE 25.9 km/h 25.7 km/h 12 % 0 mm
12:04 24.7 °C -6.6 °C 1012.1 hPa ENE 16.3 km/h 24.1 km/h 12 % 0 mm
12:09 24.7 °C -9 °C 1012.1 hPa NE 11.1 km/h 32.2 km/h 10 % 0 mm
12:14 25.1 °C -8.7 °C 1011.7 hPa NE 7.9 km/h 25.7 km/h 10 % 0 mm
12:19 25.3 °C -8.5 °C 1011.7 hPa NE 6.4 km/h 29 km/h 10 % 0 mm
12:24 25.2 °C -7.4 °C 1011.7 hPa ENE 19.5 km/h 32.2 km/h 11 % 0 mm
12:29 25.1 °C -6.3 °C 1011.7 hPa East 4.7 km/h 25.7 km/h 12 % 0 mm
12:34 25.1 °C -7.4 °C 1011.4 hPa SSW 4.7 km/h 32.2 km/h 11 % 0 mm
12:39 25.4 °C -7.2 °C 1011.4 hPa East 40.4 km/h 40.2 km/h 11 % 0 mm
12:44 25 °C -6.4 °C 1011.4 hPa ENE 14.3 km/h 38.6 km/h 12 % 0 mm
12:49 25.4 °C -7.2 °C 1011.4 hPa NE 9.7 km/h 22.5 km/h 11 % 0 mm
12:54 25.4 °C -6.1 °C 1011.4 hPa ENE 20.9 km/h 32.2 km/h 12 % 0 mm
12:59 25.4 °C -6.1 °C 1011.1 hPa ENE 32 km/h 32.2 km/h 12 % 0 mm
13:04 25 °C -6.4 °C 1011.1 hPa NNE 27.4 km/h 32.2 km/h 12 % 0 mm
13:09 24.8 °C -5.5 °C 1011.1 hPa ENE 32 km/h 37 km/h 13 % 0 mm
13:14 24.8 °C -5.5 °C 1011.1 hPa NE 27.4 km/h 33.8 km/h 13 % 0 mm
13:19 24.9 °C -5.4 °C 1011.1 hPa ENE 30.6 km/h 33.8 km/h 13 % 0 mm
13:24 25.6 °C -4.9 °C 1011.1 hPa ENE 14.3 km/h 20.9 km/h 13 % 0 mm
13:29 25.3 °C -6.2 °C 1011.1 hPa ENE 30.6 km/h 40.2 km/h 12 % 0 mm
13:34 25.3 °C -5.1 °C 1010.7 hPa NE 28.8 km/h 35.4 km/h 13 % 0 mm
13:39 25.6 °C -4.9 °C 1010.7 hPa ENE 17.7 km/h 29 km/h 13 % 0 mm
13:44 25.9 °C -4.6 °C 1010.7 hPa East 27.4 km/h 38.6 km/h 13 % 0 mm
13:49 25.8 °C -3.7 °C 1010.7 hPa NE 13 km/h 29 km/h 14 % 0 mm
13:54 26.1 °C -4.5 °C 1010.7 hPa ENE 24.1 km/h 30.6 km/h 13 % 0 mm
13:59 25.8 °C -4.7 °C 1010.7 hPa ENE 22.7 km/h 37 km/h 13 % 0 mm
14:04 25.6 °C -4.9 °C 1010.7 hPa ENE 19.5 km/h 38.6 km/h 13 % 0 mm
14:09 26.1 °C -4.5 °C 1010.4 hPa NE 24.1 km/h 35.4 km/h 13 % 0 mm
14:14 26.3 °C -4.3 °C 1010.4 hPa NE 24.1 km/h 29 km/h 13 % 0 mm
14:19 26.1 °C -4.5 °C 1010.4 hPa ENE 28.8 km/h 29 km/h 13 % 0 mm
14:24 26.1 °C -4.5 °C 1010.4 hPa ENE 24.1 km/h 30.6 km/h 13 % 0 mm
14:29 26.4 °C -4.2 °C 1010.4 hPa ENE 11.1 km/h 24.1 km/h 13 % 0 mm
14:34 26.4 °C -3.3 °C 1010.4 hPa ENE 30.6 km/h 30.6 km/h 14 % 0 mm
14:39 26.4 °C -4.2 °C 1010.4 hPa NNW 22.7 km/h 32.2 km/h 13 % 0 mm
14:44 26.6 °C -5.1 °C 1010.4 hPa NE 14.3 km/h 29 km/h 12 % 0 mm
14:49 26.2 °C -4.4 °C 1010 hPa ENE 28.8 km/h 41.8 km/h 13 % 0 mm
14:54 26.2 °C -5.5 °C 1010 hPa NE 25.9 km/h 45.1 km/h 12 % 0 mm
14:59 25.9 °C -5.7 °C 1010 hPa East 25.9 km/h 45.1 km/h 12 % 0 mm
15:04 26.1 °C -4.5 °C 1010 hPa ENE 14.3 km/h 24.1 km/h 13 % 0 mm
15:09 26 °C -5.6 °C 1010 hPa ENE 30.6 km/h 38.6 km/h 12 % 0 mm
15:14 26 °C -4.6 °C 1010 hPa ENE 16.3 km/h 38.6 km/h 13 % 0 mm
15:19 26 °C -4.6 °C 1010 hPa ENE 43.6 km/h 43.5 km/h 13 % 0 mm
15:24 25.8 °C -4.7 °C 1010 hPa ENE 40.4 km/h 46.7 km/h 13 % 0 mm
15:29 25.7 °C -3.8 °C 1010 hPa East 30.6 km/h 40.2 km/h 14 % 0 mm
15:34 25.7 °C -4.8 °C 1010 hPa ENE 35.2 km/h 49.9 km/h 13 % 0 mm
15:39 25.8 °C -3.7 °C 1010 hPa ENE 19.5 km/h 32.2 km/h 14 % 0 mm
15:44 26.1 °C -3.5 °C 1010 hPa NE 27.4 km/h 37 km/h 14 % 0 mm
15:49 26 °C -3.6 °C 1010 hPa ENE 30.6 km/h 51.5 km/h 14 % 0 mm
15:54 25.9 °C -4.6 °C 1010 hPa ENE 37 km/h 38.6 km/h 13 % 0 mm
15:59 25.8 °C -4.7 °C 1010 hPa ENE 33.8 km/h 38.6 km/h 13 % 0 mm
16:04 25.8 °C -3.7 °C 1010 hPa ENE 46.8 km/h 46.7 km/h 14 % 0 mm
16:09 25.9 °C -3.6 °C 1010 hPa ENE 28.8 km/h 30.6 km/h 14 % 0 mm
16:14 25.8 °C -4.7 °C 1010 hPa East 27.4 km/h 38.6 km/h 13 % 0 mm
16:19 25.7 °C -3.8 °C 1010 hPa ENE 25.9 km/h 32.2 km/h 14 % 0 mm
16:24 25.8 °C -3.7 °C 1010 hPa ENE 28.8 km/h 32.2 km/h 14 % 0 mm
16:29 25.8 °C -3.7 °C 1010 hPa ENE 13 km/h 25.7 km/h 14 % 0 mm
16:34 25.8 °C -3.7 °C 1010 hPa ENE 14.3 km/h 27.4 km/h 14 % 0 mm
16:39 25.9 °C -3.6 °C 1009.7 hPa NE 32 km/h 35.4 km/h 14 % 0 mm
16:44 25.9 °C -3.6 °C 1010 hPa ENE 30.6 km/h 40.2 km/h 14 % 0 mm
16:49 25.9 °C -3.6 °C 1010 hPa ENE 33.8 km/h 33.8 km/h 14 % 0 mm
16:54 25.8 °C -3.7 °C 1009.7 hPa ENE 40.4 km/h 40.2 km/h 14 % 0 mm
16:59 25.8 °C -3.7 °C 1009.7 hPa ENE 37 km/h 37 km/h 14 % 0 mm
17:04 25.8 °C -3.7 °C 1009.7 hPa ENE 41.7 km/h 49.9 km/h 14 % 0 mm
17:09 25.9 °C -3.6 °C 1009.7 hPa NE 24.1 km/h 41.8 km/h 14 % 0 mm
17:13 25.9 °C -3.6 °C 1009.7 hPa East 19.5 km/h 32.2 km/h 14 % 0 mm
17:19 25.9 °C -3.6 °C 1009.7 hPa ENE 35.2 km/h 38.6 km/h 14 % 0 mm
17:24 25.9 °C -3.6 °C 1009.7 hPa NE 30.6 km/h 41.8 km/h 14 % 0 mm
17:29 25.9 °C -3.6 °C 1009.7 hPa NE 20.9 km/h 30.6 km/h 14 % 0 mm
17:34 25.8 °C -3.7 °C 1009.7 hPa NE 11.1 km/h 32.2 km/h 14 % 0 mm
17:39 25.7 °C -3.8 °C 1009.7 hPa ENE 14.3 km/h 30.6 km/h 14 % 0 mm
17:44 25.8 °C -2.8 °C 1009.7 hPa ENE 24.1 km/h 24.1 km/h 15 % 0 mm
17:49 25.9 °C -3.6 °C 1010 hPa ENE 14.3 km/h 16.1 km/h 14 % 0 mm
17:54 25.8 °C -3.7 °C 1010 hPa NE 16.3 km/h 30.6 km/h 14 % 0 mm
17:59 25.7 °C -2.9 °C 1010 hPa ENE 7.9 km/h 24.1 km/h 15 % 0 mm
18:04 25.7 °C -2.9 °C 1010 hPa ENE 13 km/h 17.7 km/h 15 % 0 mm
18:09 25.5 °C -3 °C 1010 hPa NE 13 km/h 17.7 km/h 15 % 0 mm
18:14 25.4 °C -3.1 °C 1010 hPa ENE 19.5 km/h 25.7 km/h 15 % 0 mm
18:17 25.4 °C -3.1 °C 1010 hPa ENE 16.3 km/h 29 km/h 15 % 0 mm
18:23 25.3 °C -3.2 °C 1010 hPa ENE 22.7 km/h 22.5 km/h 15 % 0 mm
18:29 25.2 °C -3.3 °C 1010.4 hPa ENE 13 km/h 24.1 km/h 15 % 0 mm
18:34 25.1 °C -3.4 °C 1010.4 hPa ENE 16.3 km/h 17.7 km/h 15 % 0 mm
18:37 25.1 °C -3.4 °C 1010.4 hPa ENE 13 km/h 17.7 km/h 15 % 0 mm
18:44 24.8 °C -2.7 °C 1010.4 hPa North 7.9 km/h 14.5 km/h 16 % 0 mm
18:49 24.6 °C -2.9 °C 1010.4 hPa NE 6.4 km/h 9.7 km/h 16 % 0 mm
18:54 24.3 °C -3.1 °C 1010.7 hPa NE 6.4 km/h 11.3 km/h 16 % 0 mm
18:59 24.1 °C -2.5 °C 1010.7 hPa ENE 6.4 km/h 6.4 km/h 17 % 0 mm
19:04 23.8 °C -2.7 °C 1010.7 hPa ENE 1.4 km/h 9.7 km/h 17 % 0 mm
19:09 23.7 °C -2.8 °C 1010.7 hPa Calm   4.8 km/h 17 % 0 mm
19:10 23.6 °C -2.9 °C 1010.7 hPa Calm   3.2 km/h 17 % 0 mm
20:19 19.4 °C -2.3 °C 1011.7 hPa SW 13 km/h 12.9 km/h 23 % 0 mm
20:24 18.9 °C -2.1 °C 0 hPa SSW 11.1 km/h -1607.7 km/h 24 % 0 mm
20:29 18.4 °C -2 °C 1012.1 hPa South 14.3 km/h 17.7 km/h 25 % 0 mm
20:34 18.3 °C -2.1 °C 1012.1 hPa SSE 13 km/h 16.1 km/h 25 % 0 mm
20:38 18.1 °C -2.2 °C 1012.1 hPa SSE 13 km/h 20.9 km/h 25 % 0 mm
20:49 17 °C -1.6 °C 1012.4 hPa SSE 13 km/h 16.1 km/h 28 % 0 mm
20:54 16.6 °C -1.5 °C 1012.4 hPa SW 13 km/h 20.9 km/h 29 % 0 mm
20:59 16.4 °C -1.7 °C 1012.4 hPa South 16.3 km/h 19.3 km/h 29 % 0 mm
21:04 16.4 °C -1.7 °C 1012.8 hPa South 14.3 km/h 19.3 km/h 29 % 0 mm
21:09 16.5 °C -2.1 °C 1012.8 hPa SSW 16.3 km/h 20.9 km/h 28 % 0 mm
21:14 16.4 °C -1.7 °C 1012.8 hPa SSW 11.1 km/h 19.3 km/h 29 % 0 mm
21:19 16.3 °C -1.8 °C 1012.8 hPa SSW 13 km/h 22.5 km/h 29 % 0 mm
21:24 16.2 °C -1.9 °C 1012.8 hPa SSW 13 km/h 20.9 km/h 29 % 0 mm
21:29 16.1 °C -1.9 °C 1012.8 hPa South 19.5 km/h 22.5 km/h 29 % 0 mm
21:34 15.9 °C -2.1 °C 1012.8 hPa SSW 19.5 km/h 19.3 km/h 29 % 0 mm
21:39 15.7 °C -2.3 °C 1012.8 hPa South 13 km/h 22.5 km/h 29 % 0 mm
21:44 15.2 °C -2.3 °C 1013.1 hPa SSE 17.7 km/h 25.7 km/h 30 % 0 mm
21:49 15.1 °C -2.4 °C 1013.1 hPa SSW 16.3 km/h 20.9 km/h 30 % 0 mm
21:54 15.2 °C -2.3 °C 1013.1 hPa SSE 14.3 km/h 19.3 km/h 30 % 0 mm
21:59 15.3 °C -2.2 °C 1013.1 hPa SSW 20.9 km/h 20.9 km/h 30 % 0 mm
22:04 15.4 °C -2.6 °C 1013.1 hPa SSW 14.3 km/h 20.9 km/h 29 % 0 mm
22:09 15.7 °C -2.3 °C 1013.1 hPa SSW 16.3 km/h 22.5 km/h 29 % 0 mm
22:14 15.3 °C -2.2 °C 1013.1 hPa SSW 14.3 km/h 20.9 km/h 30 % 0 mm
22:19 14.3 °C -2.2 °C 1013.1 hPa SSE 17.7 km/h 22.5 km/h 32 % 0 mm
22:24 14.1 °C -2.4 °C 1013.4 hPa SSW 13 km/h 25.7 km/h 32 % 0 mm
22:29 13.8 °C -2.2 °C 1013.4 hPa SSW 19.5 km/h 22.5 km/h 33 % 0 mm
22:34 13.5 °C -2.1 °C 1013.4 hPa SW 19.5 km/h 22.5 km/h 34 % 0 mm
22:39 13.4 °C -2.6 °C 1013.4 hPa South 17.7 km/h 22.5 km/h 33 % 0 mm
22:44 13.2 °C -2.3 °C 1013.4 hPa SSW 11.1 km/h 22.5 km/h 34 % 0 mm
22:49 13.1 °C -2.4 °C 1013.4 hPa SW 16.3 km/h 20.9 km/h 34 % 0 mm
22:54 12.9 °C -2.2 °C 1013.4 hPa SW 13 km/h 22.5 km/h 35 % 0 mm
22:59 12.7 °C -2.4 °C 1013.4 hPa SSE 13 km/h 17.7 km/h 35 % 0 mm
23:04 12.7 °C -2.4 °C 1013.4 hPa SW 14.3 km/h 19.3 km/h 35 % 0 mm
23:09 12.7 °C -2.4 °C 1013.4 hPa WSW 19.5 km/h 19.3 km/h 35 % 0 mm
23:14 12.6 °C -2.5 °C 1013.8 hPa SW 13 km/h 19.3 km/h 35 % 0 mm
23:19 12.5 °C -2.6 °C 1013.8 hPa SSW 13 km/h 14.5 km/h 35 % 0 mm
23:24 12.4 °C -2.6 °C 1013.8 hPa WSW 11.1 km/h 14.5 km/h 35 % 0 mm
23:29 12.6 °C -2.5 °C 1013.8 hPa SSW 9.7 km/h 14.5 km/h 35 % 0 mm
23:34 12.4 °C -2.6 °C 1013.8 hPa ESE 6.4 km/h 14.5 km/h 35 % 0 mm
23:39 12.2 °C -2.4 °C 1014.1 hPa WSW 11.1 km/h 16.1 km/h 36 % 0 mm
23:44 12.2 °C -2.4 °C 1014.1 hPa SSW 13 km/h 16.1 km/h 36 % 0 mm
23:49 12.2 °C -2.4 °C 1014.1 hPa South 16.3 km/h 19.3 km/h 36 % 0 mm
23:54 12.7 °C -3.2 °C 1014.1 hPa SSW 7.9 km/h 12.9 km/h 33 % 0 mm
23:59 12.5 °C -2.9 °C 1014.1 hPa SSW 6.4 km/h 14.5 km/h 34 % 0 mm
Evergreen Colorado, USA
Compliments of Weather Underground - 3.5 mb